هرات, افغانستان

10:43 PM AFT on آوریل 28, 2015 (GMT +0430)
Herat | | Change Station
CLOSE
Current Station
Airport
Location: Herat,
Elevation: 3163 ft
Nearby Weather Stations

Elev 3163 ft 34.21 °N, 62.23 °E | Updated 1 hour ago

Scattered Clouds
ابرهای پراکنده
73 °F
Feels Like 73 °F
N
9
باد متغير باد from SSE

امروز
High -- | Low -- °F
--% Chance of Precip.
دیروز
High -- | Low -- °F
Precip. -- در
5:35 AM 7:02 PM
Waxing Gibbous, 75% visible
فشار 30.04 در
ديد 6.2 مايل، ميل (در برابر كيلومتر
ابری Few 8000 ft
ابرهای پراکنده 12000 ft
قطره شبنم 23 °F
رطوبت 15%
بارش باران 0.00 در
برف عمیق Not available.
مادون قرمز 0 out of 12
Pollen Not available.
تمیزی هوا Not available.
Flu Activity Not available.
METAR OAHR 281655Z 16008KT 9999 FEW080 SCT120 23/M05 Q1017 RMK BKN VIS MIN 9999 BLU

More Conditions Fewer Conditions

فشار 30.04 در
ديد 6.2 مايل، ميل (در برابر كيلومتر
ابری Few 8000 ft
ابرهای پراکنده 12000 ft
قطره شبنم 23 °F
رطوبت 15%
بارش باران 0.00 در
برف عمیق Not available.
مادون قرمز 0 out of 12
Pollen Not available.
تمیزی هوا Not available.
Flu Activity Not available.
METAR OAHR 281655Z 16008KT 9999 FEW080 SCT120 23/M05 Q1017 RMK BKN VIS MIN 9999 BLU

More Conditions Fewer Conditions

10-Day Weather Forecast

Almanac

ستاره شناسی

Apr. 28, 2015 Rise Set
وقت حقیقی
تاریک و روشن اجتماعی
تاریک روشن دریایی
شفق و فلق نجومی
ماه
میزان روشنایی روز
طول روز
Tomorrow will be .
, % of the Moon is Illuminated

Today's Extremes

Country Highs Country Lows

Community

WunderPhotos

Upload Photos

1,817,719 photos uploaded!

WunderBlogs® & News

Nearby

تمیزی هوا

  تمیزی هوا AQ Index آلاینده
Not available.

عمق برف

Station Depth Elevation

Earthquake Activity

شهر Distance Mag. Time & Date
Minimum magnitude displayed is 2.5.

Coastal Water Temperatures

منطقه درجه حرارت

Stations

Nearby Weather Stations

Station Location دما باد سرد قطره شبنم رطوبت باد Precip. Elev ارتقا دادن Type